sensor_id;sensor_type;location;lat;lon;timestamp;P1;durP1;ratioP1;P2;durP2;ratioP2
14294;SDS011;7231;59.370;18.016;2023-09-12T00:00:28;20.58;;;17.85;;
14294;SDS011;7231;59.370;18.016;2023-09-12T00:02:58;21.92;;;17.05;;
14294;SDS011;7231;59.370;18.016;2023-09-12T00:05:26;21.73;;;17.92;;
14294;SDS011;7231;59.370;18.016;2023-09-12T00:07:54;23.23;;;17.55;;
14294;SDS011;7231;59.370;18.016;2023-09-12T00:10:22;23.30;;;18.85;;
14294;SDS011;7231;59.370;18.016;2023-09-12T00:12:51;24.63;;;18.90;;
14294;SDS011;7231;59.370;18.016;2023-09-12T00:15:19;24.00;;;19.23;;
14294;SDS011;7231;59.370;18.016;2023-09-12T00:17:47;27.77;;;20.30;;
14294;SDS011;7231;59.370;18.016;2023-09-12T00:20:17;28.60;;;20.88;;
14294;SDS011;7231;59.370;18.016;2023-09-12T00:22:45;26.58;;;19.25;;
14294;SDS011;7231;59.370;18.016;2023-09-12T00:25:14;25.13;;;18.55;;
14294;SDS011;7231;59.370;18.016;2023-09-12T00:27:42;27.67;;;20.15;;
14294;SDS011;7231;59.370;18.016;2023-09-12T00:30:10;27.48;;;20.67;;
14294;SDS011;7231;59.370;18.016;2023-09-12T00:32:39;28.15;;;19.45;;
14294;SDS011;7231;59.370;18.016;2023-09-12T00:35:07;29.83;;;20.65;;
14294;SDS011;7231;59.370;18.016;2023-09-12T00:37:37;30.27;;;20.45;;
14294;SDS011;7231;59.370;18.016;2023-09-12T00:40:05;27.10;;;20.50;;
14294;SDS011;7231;59.370;18.016;2023-09-12T00:42:34;28.20;;;21.13;;
14294;SDS011;7231;59.370;18.016;2023-09-12T00:45:02;28.20;;;20.50;;
14294;SDS011;7231;59.370;18.016;2023-09-12T00:47:30;32.97;;;21.88;;
14294;SDS011;7231;59.370;18.016;2023-09-12T00:49:59;31.95;;;21.48;;
14294;SDS011;7231;59.370;18.016;2023-09-12T00:52:28;28.77;;;21.88;;
14294;SDS011;7231;59.370;18.016;2023-09-12T00:54:59;27.83;;;21.77;;
14294;SDS011;7231;59.370;18.016;2023-09-12T00:57:27;32.42;;;22.08;;
14294;SDS011;7231;59.370;18.016;2023-09-12T00:59:58;31.63;;;22.15;;
14294;SDS011;7231;59.370;18.016;2023-09-12T01:02:26;29.95;;;22.63;;
14294;SDS011;7231;59.370;18.016;2023-09-12T01:04:54;32.88;;;23.08;;
14294;SDS011;7231;59.370;18.016;2023-09-12T01:07:22;40.00;;;21.75;;
14294;SDS011;7231;59.370;18.016;2023-09-12T01:09:50;34.20;;;22.55;;
14294;SDS011;7231;59.370;18.016;2023-09-12T01:12:19;28.98;;;20.80;;
14294;SDS011;7231;59.370;18.016;2023-09-12T01:14:48;31.63;;;21.90;;
14294;SDS011;7231;59.370;18.016;2023-09-12T01:17:16;29.17;;;20.75;;
14294;SDS011;7231;59.370;18.016;2023-09-12T01:19:44;36.95;;;20.50;;
14294;SDS011;7231;59.370;18.016;2023-09-12T01:22:16;30.92;;;20.00;;
14294;SDS011;7231;59.370;18.016;2023-09-12T01:27:56;32.75;;;21.70;;
14294;SDS011;7231;59.370;18.016;2023-09-12T01:30:29;33.22;;;22.48;;
14294;SDS011;7231;59.370;18.016;2023-09-12T01:33:00;27.55;;;20.15;;
14294;SDS011;7231;59.370;18.016;2023-09-12T01:35:29;28.90;;;20.80;;
14294;SDS011;7231;59.370;18.016;2023-09-12T01:37:57;29.75;;;19.85;;
14294;SDS011;7231;59.370;18.016;2023-09-12T01:40:27;28.98;;;20.15;;
14294;SDS011;7231;59.370;18.016;2023-09-12T01:43:02;26.35;;;19.70;;
14294;SDS011;7231;59.370;18.016;2023-09-12T01:45:32;26.80;;;19.10;;
14294;SDS011;7231;59.370;18.016;2023-09-12T01:48:01;24.52;;;18.55;;
14294;SDS011;7231;59.370;18.016;2023-09-12T01:50:31;22.80;;;17.65;;
14294;SDS011;7231;59.370;18.016;2023-09-12T01:53:00;22.00;;;17.52;;
14294;SDS011;7231;59.370;18.016;2023-09-12T01:55:29;22.35;;;17.73;;
14294;SDS011;7231;59.370;18.016;2023-09-12T01:57:58;27.55;;;17.92;;
14294;SDS011;7231;59.370;18.016;2023-09-12T02:00:27;22.02;;;17.25;;
14294;SDS011;7231;59.370;18.016;2023-09-12T02:02:56;24.30;;;17.80;;
14294;SDS011;7231;59.370;18.016;2023-09-12T02:05:24;19.95;;;16.63;;
14294;SDS011;7231;59.370;18.016;2023-09-12T02:07:52;22.50;;;16.92;;
14294;SDS011;7231;59.370;18.016;2023-09-12T02:10:19;21.05;;;16.55;;
14294;SDS011;7231;59.370;18.016;2023-09-12T02:12:47;19.35;;;16.33;;
14294;SDS011;7231;59.370;18.016;2023-09-12T02:15:15;23.33;;;16.95;;
14294;SDS011;7231;59.370;18.016;2023-09-12T02:17:45;21.58;;;16.35;;
14294;SDS011;7231;59.370;18.016;2023-09-12T02:20:13;25.92;;;16.98;;
14294;SDS011;7231;59.370;18.016;2023-09-12T02:22:41;24.88;;;16.77;;
14294;SDS011;7231;59.370;18.016;2023-09-12T02:25:09;25.10;;;15.73;;
14294;SDS011;7231;59.370;18.016;2023-09-12T02:27:37;23.77;;;17.65;;
14294;SDS011;7231;59.370;18.016;2023-09-12T02:30:06;20.73;;;15.95;;
14294;SDS011;7231;59.370;18.016;2023-09-12T02:32:34;22.90;;;15.98;;
14294;SDS011;7231;59.370;18.016;2023-09-12T02:35:04;31.75;;;17.00;;
14294;SDS011;7231;59.370;18.016;2023-09-12T02:37:32;23.85;;;16.95;;
14294;SDS011;7231;59.370;18.016;2023-09-12T02:40:01;25.90;;;16.85;;
14294;SDS011;7231;59.370;18.016;2023-09-12T02:42:30;30.30;;;18.15;;
14294;SDS011;7231;59.370;18.016;2023-09-12T02:44:58;25.73;;;18.13;;
14294;SDS011;7231;59.370;18.016;2023-09-12T02:47:26;23.25;;;17.63;;
14294;SDS011;7231;59.370;18.016;2023-09-12T02:49:54;26.63;;;17.00;;
14294;SDS011;7231;59.370;18.016;2023-09-12T02:52:23;23.55;;;16.67;;
14294;SDS011;7231;59.370;18.016;2023-09-12T02:54:51;21.27;;;17.23;;
14294;SDS011;7231;59.370;18.016;2023-09-12T02:57:19;21.10;;;17.02;;
14294;SDS011;7231;59.370;18.016;2023-09-12T02:59:47;25.50;;;18.15;;
14294;SDS011;7231;59.370;18.016;2023-09-12T03:02:15;23.67;;;18.58;;
14294;SDS011;7231;59.370;18.016;2023-09-12T03:04:43;25.73;;;18.50;;
14294;SDS011;7231;59.370;18.016;2023-09-12T03:07:11;24.02;;;18.50;;
14294;SDS011;7231;59.370;18.016;2023-09-12T03:09:42;25.92;;;18.23;;
14294;SDS011;7231;59.370;18.016;2023-09-12T03:12:09;24.85;;;18.42;;
14294;SDS011;7231;59.370;18.016;2023-09-12T03:14:38;23.75;;;18.80;;
14294;SDS011;7231;59.370;18.016;2023-09-12T03:17:06;25.27;;;18.75;;
14294;SDS011;7231;59.370;18.016;2023-09-12T03:19:33;22.20;;;18.23;;
14294;SDS011;7231;59.370;18.016;2023-09-12T03:22:02;22.63;;;18.13;;
14294;SDS011;7231;59.370;18.016;2023-09-12T03:24:30;23.20;;;18.15;;
14294;SDS011;7231;59.370;18.016;2023-09-12T03:26:59;28.05;;;19.70;;
14294;SDS011;7231;59.370;18.016;2023-09-12T03:29:27;26.88;;;19.63;;
14294;SDS011;7231;59.370;18.016;2023-09-12T03:31:55;27.40;;;19.83;;
14294;SDS011;7231;59.370;18.016;2023-09-12T03:34:23;25.13;;;18.00;;
14294;SDS011;7231;59.370;18.016;2023-09-12T03:36:51;22.15;;;17.50;;
14294;SDS011;7231;59.370;18.016;2023-09-12T03:39:19;24.77;;;18.25;;
14294;SDS011;7231;59.370;18.016;2023-09-12T03:41:47;24.27;;;18.08;;
14294;SDS011;7231;59.370;18.016;2023-09-12T03:44:16;23.83;;;18.80;;
14294;SDS011;7231;59.370;18.016;2023-09-12T03:46:44;21.52;;;17.45;;
14294;SDS011;7231;59.370;18.016;2023-09-12T03:49:12;25.50;;;17.20;;
14294;SDS011;7231;59.370;18.016;2023-09-12T03:51:40;22.88;;;17.05;;
14294;SDS011;7231;59.370;18.016;2023-09-12T03:54:08;22.83;;;17.92;;
14294;SDS011;7231;59.370;18.016;2023-09-12T03:56:36;21.75;;;17.42;;
14294;SDS011;7231;59.370;18.016;2023-09-12T03:59:04;22.85;;;17.27;;
14294;SDS011;7231;59.370;18.016;2023-09-12T04:01:34;18.75;;;16.70;;
14294;SDS011;7231;59.370;18.016;2023-09-12T04:04:03;24.33;;;16.25;;
14294;SDS011;7231;59.370;18.016;2023-09-12T04:06:31;17.50;;;15.60;;
14294;SDS011;7231;59.370;18.016;2023-09-12T04:08:59;23.02;;;15.85;;
14294;SDS011;7231;59.370;18.016;2023-09-12T04:11:27;18.17;;;15.57;;
14294;SDS011;7231;59.370;18.016;2023-09-12T04:14:11;19.42;;;15.43;;
14294;SDS011;7231;59.370;18.016;2023-09-12T04:16:41;21.63;;;16.20;;
14294;SDS011;7231;59.370;18.016;2023-09-12T04:19:09;27.20;;;16.77;;
14294;SDS011;7231;59.370;18.016;2023-09-12T04:21:37;28.67;;;18.02;;
14294;SDS011;7231;59.370;18.016;2023-09-12T04:24:05;22.40;;;18.17;;
14294;SDS011;7231;59.370;18.016;2023-09-12T04:26:34;22.88;;;18.00;;
14294;SDS011;7231;59.370;18.016;2023-09-12T04:29:02;27.80;;;19.58;;
14294;SDS011;7231;59.370;18.016;2023-09-12T04:31:30;23.55;;;17.95;;
14294;SDS011;7231;59.370;18.016;2023-09-12T04:34:00;21.88;;;17.00;;
14294;SDS011;7231;59.370;18.016;2023-09-12T04:36:28;22.90;;;17.52;;
14294;SDS011;7231;59.370;18.016;2023-09-12T04:38:56;21.35;;;18.00;;
14294;SDS011;7231;59.370;18.016;2023-09-12T04:41:24;21.65;;;17.92;;
14294;SDS011;7231;59.370;18.016;2023-09-12T04:43:52;20.13;;;16.55;;
14294;SDS011;7231;59.370;18.016;2023-09-12T04:46:20;22.83;;;16.48;;
14294;SDS011;7231;59.370;18.016;2023-09-12T04:48:48;19.27;;;16.35;;
14294;SDS011;7231;59.370;18.016;2023-09-12T04:51:17;16.42;;;14.73;;
14294;SDS011;7231;59.370;18.016;2023-09-12T04:53:45;16.38;;;14.50;;
14294;SDS011;7231;59.370;18.016;2023-09-12T04:56:18;18.25;;;15.45;;
14294;SDS011;7231;59.370;18.016;2023-09-12T04:58:46;19.45;;;16.00;;
14294;SDS011;7231;59.370;18.016;2023-09-12T05:01:14;18.73;;;15.25;;
14294;SDS011;7231;59.370;18.016;2023-09-12T05:03:43;18.50;;;14.90;;
14294;SDS011;7231;59.370;18.016;2023-09-12T05:08:41;18.58;;;13.63;;
14294;SDS011;7231;59.370;18.016;2023-09-12T05:11:09;15.80;;;13.73;;
14294;SDS011;7231;59.370;18.016;2023-09-12T05:13:37;14.52;;;13.05;;
14294;SDS011;7231;59.370;18.016;2023-09-12T05:16:05;14.65;;;13.25;;
14294;SDS011;7231;59.370;18.016;2023-09-12T05:18:33;14.13;;;12.68;;
14294;SDS011;7231;59.370;18.016;2023-09-12T05:21:01;16.95;;;15.02;;
14294;SDS011;7231;59.370;18.016;2023-09-12T05:23:29;16.38;;;14.70;;
14294;SDS011;7231;59.370;18.016;2023-09-12T05:25:58;21.65;;;15.05;;
14294;SDS011;7231;59.370;18.016;2023-09-12T05:28:27;17.77;;;14.38;;
14294;SDS011;7231;59.370;18.016;2023-09-12T05:30:55;15.57;;;13.90;;
14294;SDS011;7231;59.370;18.016;2023-09-12T05:33:23;19.92;;;14.75;;
14294;SDS011;7231;59.370;18.016;2023-09-12T05:35:51;14.75;;;13.15;;
14294;SDS011;7231;59.370;18.016;2023-09-12T05:38:19;15.13;;;13.65;;
14294;SDS011;7231;59.370;18.016;2023-09-12T05:40:47;15.48;;;13.45;;
14294;SDS011;7231;59.370;18.016;2023-09-12T05:43:17;14.57;;;13.18;;
14294;SDS011;7231;59.370;18.016;2023-09-12T05:45:45;14.32;;;11.82;;
14294;SDS011;7231;59.370;18.016;2023-09-12T05:48:13;12.50;;;11.20;;
14294;SDS011;7231;59.370;18.016;2023-09-12T05:50:41;12.90;;;11.60;;
14294;SDS011;7231;59.370;18.016;2023-09-12T05:53:09;12.77;;;11.48;;
14294;SDS011;7231;59.370;18.016;2023-09-12T05:55:37;12.88;;;10.52;;
14294;SDS011;7231;59.370;18.016;2023-09-12T05:58:05;11.32;;;10.23;;
14294;SDS011;7231;59.370;18.016;2023-09-12T06:00:34;12.13;;;10.93;;
14294;SDS011;7231;59.370;18.016;2023-09-12T06:03:03;12.27;;;11.05;;
14294;SDS011;7231;59.370;18.016;2023-09-12T06:05:31;13.52;;;12.13;;
14294;SDS011;7231;59.370;18.016;2023-09-12T06:07:59;13.68;;;12.27;;
14294;SDS011;7231;59.370;18.016;2023-09-12T06:10:27;17.27;;;12.35;;
14294;SDS011;7231;59.370;18.016;2023-09-12T06:12:55;12.40;;;11.10;;
14294;SDS011;7231;59.370;18.016;2023-09-12T06:15:23;13.07;;;11.73;;
14294;SDS011;7231;59.370;18.016;2023-09-12T06:17:52;12.98;;;11.75;;
14294;SDS011;7231;59.370;18.016;2023-09-12T06:20:21;16.05;;;12.32;;
14294;SDS011;7231;59.370;18.016;2023-09-12T06:22:49;18.25;;;13.85;;
14294;SDS011;7231;59.370;18.016;2023-09-12T06:25:18;15.15;;;12.30;;
14294;SDS011;7231;59.370;18.016;2023-09-12T06:27:45;14.48;;;12.80;;
14294;SDS011;7231;59.370;18.016;2023-09-12T06:30:14;15.98;;;14.27;;
14294;SDS011;7231;59.370;18.016;2023-09-12T06:32:42;15.15;;;13.23;;
14294;SDS011;7231;59.370;18.016;2023-09-12T06:35:11;15.20;;;13.60;;
14294;SDS011;7231;59.370;18.016;2023-09-12T06:37:39;15.20;;;13.60;;
14294;SDS011;7231;59.370;18.016;2023-09-12T06:40:08;18.95;;;15.70;;
14294;SDS011;7231;59.370;18.016;2023-09-12T06:42:36;16.50;;;14.80;;
14294;SDS011;7231;59.370;18.016;2023-09-12T06:45:04;17.30;;;15.10;;
14294;SDS011;7231;59.370;18.016;2023-09-12T06:47:33;15.93;;;14.23;;
14294;SDS011;7231;59.370;18.016;2023-09-12T06:50:01;19.58;;;16.10;;
14294;SDS011;7231;59.370;18.016;2023-09-12T06:52:33;19.30;;;15.85;;
14294;SDS011;7231;59.370;18.016;2023-09-12T06:55:01;20.33;;;17.45;;
14294;SDS011;7231;59.370;18.016;2023-09-12T06:57:28;19.92;;;16.55;;
14294;SDS011;7231;59.370;18.016;2023-09-12T06:59:56;21.55;;;16.10;;
14294;SDS011;7231;59.370;18.016;2023-09-12T07:02:26;18.33;;;16.42;;
14294;SDS011;7231;59.370;18.016;2023-09-12T07:04:54;19.33;;;17.05;;
14294;SDS011;7231;59.370;18.016;2023-09-12T07:07:23;18.45;;;16.45;;
14294;SDS011;7231;59.370;18.016;2023-09-12T07:09:52;19.05;;;17.05;;
14294;SDS011;7231;59.370;18.016;2023-09-12T07:12:37;18.92;;;16.50;;
14294;SDS011;7231;59.370;18.016;2023-09-12T07:15:05;17.05;;;15.45;;
14294;SDS011;7231;59.370;18.016;2023-09-12T07:17:34;18.20;;;16.30;;
14294;SDS011;7231;59.370;18.016;2023-09-12T07:20:02;16.55;;;14.95;;
14294;SDS011;7231;59.370;18.016;2023-09-12T07:22:30;15.52;;;13.93;;
14294;SDS011;7231;59.370;18.016;2023-09-12T07:25:00;16.67;;;14.95;;
14294;SDS011;7231;59.370;18.016;2023-09-12T07:27:28;15.27;;;13.68;;
14294;SDS011;7231;59.370;18.016;2023-09-12T07:29:57;15.45;;;13.98;;
14294;SDS011;7231;59.370;18.016;2023-09-12T07:32:25;16.25;;;14.32;;
14294;SDS011;7231;59.370;18.016;2023-09-12T07:34:53;16.98;;;15.25;;
14294;SDS011;7231;59.370;18.016;2023-09-12T07:37:21;16.40;;;14.65;;
14294;SDS011;7231;59.370;18.016;2023-09-12T07:39:49;15.35;;;13.90;;
14294;SDS011;7231;59.370;18.016;2023-09-12T07:42:19;17.33;;;15.63;;
14294;SDS011;7231;59.370;18.016;2023-09-12T07:44:49;16.65;;;14.93;;
14294;SDS011;7231;59.370;18.016;2023-09-12T07:47:17;15.93;;;14.15;;
14294;SDS011;7231;59.370;18.016;2023-09-12T07:49:45;14.65;;;13.00;;
14294;SDS011;7231;59.370;18.016;2023-09-12T07:52:13;13.80;;;12.40;;
14294;SDS011;7231;59.370;18.016;2023-09-12T07:54:41;14.13;;;12.73;;
14294;SDS011;7231;59.370;18.016;2023-09-12T07:57:09;12.88;;;11.75;;
14294;SDS011;7231;59.370;18.016;2023-09-12T07:59:39;13.10;;;11.90;;
14294;SDS011;7231;59.370;18.016;2023-09-12T08:02:07;13.38;;;12.02;;
14294;SDS011;7231;59.370;18.016;2023-09-12T08:04:35;11.75;;;10.63;;
14294;SDS011;7231;59.370;18.016;2023-09-12T08:07:04;12.38;;;11.15;;
14294;SDS011;7231;59.370;18.016;2023-09-12T08:09:47;13.90;;;10.95;;
14294;SDS011;7231;59.370;18.016;2023-09-12T08:12:16;12.02;;;10.82;;
14294;SDS011;7231;59.370;18.016;2023-09-12T08:14:46;11.90;;;10.70;;
14294;SDS011;7231;59.370;18.016;2023-09-12T08:17:14;12.25;;;10.18;;
14294;SDS011;7231;59.370;18.016;2023-09-12T08:19:43;10.95;;;9.95;;
14294;SDS011;7231;59.370;18.016;2023-09-12T08:22:11;12.18;;;10.13;;
14294;SDS011;7231;59.370;18.016;2023-09-12T08:24:39;11.80;;;9.57;;
14294;SDS011;7231;59.370;18.016;2023-09-12T08:27:08;9.13;;;8.27;;
14294;SDS011;7231;59.370;18.016;2023-09-12T08:29:36;10.30;;;8.38;;
14294;SDS011;7231;59.370;18.016;2023-09-12T08:32:06;11.00;;;8.00;;
14294;SDS011;7231;59.370;18.016;2023-09-12T08:34:34;10.73;;;8.18;;
14294;SDS011;7231;59.370;18.016;2023-09-12T08:37:04;9.52;;;8.10;;
14294;SDS011;7231;59.370;18.016;2023-09-12T08:39:39;9.52;;;7.93;;
14294;SDS011;7231;59.370;18.016;2023-09-12T08:42:11;9.48;;;8.35;;
14294;SDS011;7231;59.370;18.016;2023-09-12T08:44:41;9.25;;;8.40;;
14294;SDS011;7231;59.370;18.016;2023-09-12T08:47:11;8.88;;;8.07;;
14294;SDS011;7231;59.370;18.016;2023-09-12T08:49:40;8.73;;;7.82;;
14294;SDS011;7231;59.370;18.016;2023-09-12T08:52:09;8.88;;;7.75;;
14294;SDS011;7231;59.370;18.016;2023-09-12T08:54:37;8.63;;;7.78;;
14294;SDS011;7231;59.370;18.016;2023-09-12T08:57:05;9.05;;;8.15;;
14294;SDS011;7231;59.370;18.016;2023-09-12T08:59:34;8.70;;;7.90;;
14294;SDS011;7231;59.370;18.016;2023-09-12T09:02:02;13.38;;;9.02;;
14294;SDS011;7231;59.370;18.016;2023-09-12T09:04:36;10.27;;;9.27;;
14294;SDS011;7231;59.370;18.016;2023-09-12T09:07:07;9.68;;;8.88;;
14294;SDS011;7231;59.370;18.016;2023-09-12T09:09:37;10.30;;;9.27;;
14294;SDS011;7231;59.370;18.016;2023-09-12T09:12:07;10.77;;;9.18;;
14294;SDS011;7231;59.370;18.016;2023-09-12T09:14:35;9.43;;;8.60;;
14294;SDS011;7231;59.370;18.016;2023-09-12T09:17:03;9.52;;;8.65;;
14294;SDS011;7231;59.370;18.016;2023-09-12T09:19:46;10.65;;;8.85;;
14294;SDS011;7231;59.370;18.016;2023-09-12T09:22:14;10.43;;;9.43;;
14294;SDS011;7231;59.370;18.016;2023-09-12T09:24:42;9.88;;;8.93;;
14294;SDS011;7231;59.370;18.016;2023-09-12T09:27:11;12.13;;;9.45;;
14294;SDS011;7231;59.370;18.016;2023-09-12T09:29:46;11.70;;;9.32;;
14294;SDS011;7231;59.370;18.016;2023-09-12T09:32:18;10.52;;;9.52;;
14294;SDS011;7231;59.370;18.016;2023-09-12T09:34:50;10.40;;;9.35;;
14294;SDS011;7231;59.370;18.016;2023-09-12T09:37:20;10.23;;;9.23;;
14294;SDS011;7231;59.370;18.016;2023-09-12T09:39:48;9.50;;;8.60;;
14294;SDS011;7231;59.370;18.016;2023-09-12T09:42:18;10.63;;;8.90;;
14294;SDS011;7231;59.370;18.016;2023-09-12T09:44:47;9.80;;;8.90;;
14294;SDS011;7231;59.370;18.016;2023-09-12T09:47:16;12.75;;;11.18;;
14294;SDS011;7231;59.370;18.016;2023-09-12T09:49:45;12.60;;;8.20;;
14294;SDS011;7231;59.370;18.016;2023-09-12T09:52:15;8.63;;;7.75;;
14294;SDS011;7231;59.370;18.016;2023-09-12T09:54:43;9.13;;;8.05;;
14294;SDS011;7231;59.370;18.016;2023-09-12T09:57:12;9.63;;;7.45;;
14294;SDS011;7231;59.370;18.016;2023-09-12T09:59:41;8.65;;;6.70;;
14294;SDS011;7231;59.370;18.016;2023-09-12T10:02:10;7.75;;;5.95;;
14294;SDS011;7231;59.370;18.016;2023-09-12T10:04:45;6.88;;;6.30;;
14294;SDS011;7231;59.370;18.016;2023-09-12T10:07:26;6.80;;;6.20;;
14294;SDS011;7231;59.370;18.016;2023-09-12T10:09:58;7.10;;;6.40;;
14294;SDS011;7231;59.370;18.016;2023-09-12T10:12:30;6.88;;;6.18;;
14294;SDS011;7231;59.370;18.016;2023-09-12T10:14:58;6.70;;;5.68;;
14294;SDS011;7231;59.370;18.016;2023-09-12T10:17:29;5.68;;;5.18;;
14294;SDS011;7231;59.370;18.016;2023-09-12T10:20:03;6.22;;;5.63;;
14294;SDS011;7231;59.370;18.016;2023-09-12T10:22:39;6.05;;;5.55;;
14294;SDS011;7231;59.370;18.016;2023-09-12T10:25:11;6.70;;;5.75;;
14294;SDS011;7231;59.370;18.016;2023-09-12T10:27:40;6.50;;;5.53;;
14294;SDS011;7231;59.370;18.016;2023-09-12T10:30:08;7.13;;;5.80;;
14294;SDS011;7231;59.370;18.016;2023-09-12T10:32:38;6.28;;;5.60;;
14294;SDS011;7231;59.370;18.016;2023-09-12T10:35:07;6.57;;;5.50;;
14294;SDS011;7231;59.370;18.016;2023-09-12T10:37:37;6.88;;;6.00;;
14294;SDS011;7231;59.370;18.016;2023-09-12T10:40:12;6.50;;;5.90;;
14294;SDS011;7231;59.370;18.016;2023-09-12T10:42:41;7.07;;;5.90;;
14294;SDS011;7231;59.370;18.016;2023-09-12T10:45:10;7.10;;;6.15;;
14294;SDS011;7231;59.370;18.016;2023-09-12T10:47:38;7.18;;;6.47;;
14294;SDS011;7231;59.370;18.016;2023-09-12T10:50:06;6.85;;;6.25;;
14294;SDS011;7231;59.370;18.016;2023-09-12T10:52:35;7.80;;;7.03;;
14294;SDS011;7231;59.370;18.016;2023-09-12T10:55:08;7.68;;;6.97;;
14294;SDS011;7231;59.370;18.016;2023-09-12T10:58:02;9.32;;;7.32;;
14294;SDS011;7231;59.370;18.016;2023-09-12T11:00:31;10.77;;;7.70;;
14294;SDS011;7231;59.370;18.016;2023-09-12T11:06:04;7.70;;;6.85;;
14294;SDS011;7231;59.370;18.016;2023-09-12T11:08:35;9.05;;;7.57;;
14294;SDS011;7231;59.370;18.016;2023-09-12T11:11:17;8.70;;;7.90;;
14294;SDS011;7231;59.370;18.016;2023-09-12T11:13:46;9.25;;;7.38;;
14294;SDS011;7231;59.370;18.016;2023-09-12T11:16:29;11.23;;;7.90;;
14294;SDS011;7231;59.370;18.016;2023-09-12T11:19:16;9.68;;;7.80;;
14294;SDS011;7231;59.370;18.016;2023-09-12T11:21:46;9.18;;;8.30;;
14294;SDS011;7231;59.370;18.016;2023-09-12T11:24:15;9.27;;;8.45;;
14294;SDS011;7231;59.370;18.016;2023-09-12T11:26:54;9.77;;;8.77;;
14294;SDS011;7231;59.370;18.016;2023-09-12T11:29:26;10.43;;;8.57;;
14294;SDS011;7231;59.370;18.016;2023-09-12T11:31:55;8.35;;;7.53;;
14294;SDS011;7231;59.370;18.016;2023-09-12T11:34:25;10.13;;;7.38;;
14294;SDS011;7231;59.370;18.016;2023-09-12T11:36:55;10.75;;;9.15;;
14294;SDS011;7231;59.370;18.016;2023-09-12T11:39:25;10.23;;;8.65;;
14294;SDS011;7231;59.370;18.016;2023-09-12T11:41:57;9.30;;;8.27;;
14294;SDS011;7231;59.370;18.016;2023-09-12T11:44:26;10.30;;;9.40;;
14294;SDS011;7231;59.370;18.016;2023-09-12T11:46:57;9.70;;;8.75;;
14294;SDS011;7231;59.370;18.016;2023-09-12T11:49:35;12.18;;;9.95;;
14294;SDS011;7231;59.370;18.016;2023-09-12T11:52:07;14.20;;;10.85;;
14294;SDS011;7231;59.370;18.016;2023-09-12T11:54:36;12.25;;;9.88;;
14294;SDS011;7231;59.370;18.016;2023-09-12T11:57:06;10.20;;;9.18;;
14294;SDS011;7231;59.370;18.016;2023-09-12T11:59:36;13.30;;;10.65;;
14294;SDS011;7231;59.370;18.016;2023-09-12T12:02:06;13.32;;;11.07;;
14294;SDS011;7231;59.370;18.016;2023-09-12T12:04:35;11.40;;;10.20;;
14294;SDS011;7231;59.370;18.016;2023-09-12T12:07:05;10.88;;;9.88;;
14294;SDS011;7231;59.370;18.016;2023-09-12T12:09:34;12.63;;;11.38;;
14294;SDS011;7231;59.370;18.016;2023-09-12T12:14:49;12.35;;;10.27;;
14294;SDS011;7231;59.370;18.016;2023-09-12T12:17:17;12.48;;;10.95;;
14294;SDS011;7231;59.370;18.016;2023-09-12T12:19:45;13.15;;;11.10;;
14294;SDS011;7231;59.370;18.016;2023-09-12T12:22:13;14.48;;;10.93;;
14294;SDS011;7231;59.370;18.016;2023-09-12T12:24:43;12.32;;;11.13;;
14294;SDS011;7231;59.370;18.016;2023-09-12T12:27:14;12.35;;;11.00;;
14294;SDS011;7231;59.370;18.016;2023-09-12T12:29:43;12.50;;;11.30;;
14294;SDS011;7231;59.370;18.016;2023-09-12T12:32:14;13.70;;;11.43;;
14294;SDS011;7231;59.370;18.016;2023-09-12T12:34:47;11.75;;;10.65;;
14294;SDS011;7231;59.370;18.016;2023-09-12T12:37:35;10.63;;;9.63;;
14294;SDS011;7231;59.370;18.016;2023-09-12T12:40:05;11.40;;;10.25;;
14294;SDS011;7231;59.370;18.016;2023-09-12T12:42:39;11.35;;;10.25;;
14294;SDS011;7231;59.370;18.016;2023-09-12T12:45:22;11.35;;;9.40;;
14294;SDS011;7231;59.370;18.016;2023-09-12T12:47:51;11.57;;;10.40;;
14294;SDS011;7231;59.370;18.016;2023-09-12T12:50:25;12.15;;;9.30;;
14294;SDS011;7231;59.370;18.016;2023-09-12T12:52:53;10.43;;;9.40;;
14294;SDS011;7231;59.370;18.016;2023-09-12T12:55:21;10.55;;;9.55;;
14294;SDS011;7231;59.370;18.016;2023-09-12T12:57:53;13.48;;;10.30;;
14294;SDS011;7231;59.370;18.016;2023-09-12T13:00:23;12.38;;;10.30;;
14294;SDS011;7231;59.370;18.016;2023-09-12T13:02:51;12.77;;;10.32;;
14294;SDS011;7231;59.370;18.016;2023-09-12T13:05:19;13.82;;;10.57;;
14294;SDS011;7231;59.370;18.016;2023-09-12T13:07:47;12.90;;;10.65;;
14294;SDS011;7231;59.370;18.016;2023-09-12T13:10:16;12.00;;;10.77;;
14294;SDS011;7231;59.370;18.016;2023-09-12T13:12:44;12.23;;;10.93;;
14294;SDS011;7231;59.370;18.016;2023-09-12T13:15:13;12.32;;;11.13;;
14294;SDS011;7231;59.370;18.016;2023-09-12T13:17:43;13.50;;;12.10;;
14294;SDS011;7231;59.370;18.016;2023-09-12T13:20:12;13.57;;;11.95;;
14294;SDS011;7231;59.370;18.016;2023-09-12T13:22:40;12.95;;;11.50;;
14294;SDS011;7231;59.370;18.016;2023-09-12T13:25:09;12.25;;;11.00;;
14294;SDS011;7231;59.370;18.016;2023-09-12T13:27:38;13.10;;;11.70;;
14294;SDS011;7231;59.370;18.016;2023-09-12T13:30:06;14.82;;;12.73;;
14294;SDS011;7231;59.370;18.016;2023-09-12T13:32:35;13.68;;;12.27;;
14294;SDS011;7231;59.370;18.016;2023-09-12T13:35:04;14.80;;;13.30;;
14294;SDS011;7231;59.370;18.016;2023-09-12T13:37:34;14.10;;;12.52;;
14294;SDS011;7231;59.370;18.016;2023-09-12T13:40:02;15.10;;;13.52;;
14294;SDS011;7231;59.370;18.016;2023-09-12T13:42:33;17.73;;;13.00;;
14294;SDS011;7231;59.370;18.016;2023-09-12T13:45:01;16.08;;;13.32;;
14294;SDS011;7231;59.370;18.016;2023-09-12T13:47:29;19.17;;;13.35;;
14294;SDS011;7231;59.370;18.016;2023-09-12T13:49:57;15.50;;;13.90;;
14294;SDS011;7231;59.370;18.016;2023-09-12T13:52:27;14.35;;;13.05;;
14294;SDS011;7231;59.370;18.016;2023-09-12T13:54:55;15.20;;;13.70;;
14294;SDS011;7231;59.370;18.016;2023-09-12T13:57:24;15.15;;;13.63;;
14294;SDS011;7231;59.370;18.016;2023-09-12T13:59:52;15.57;;;13.90;;
14294;SDS011;7231;59.370;18.016;2023-09-12T14:02:20;16.13;;;14.20;;
14294;SDS011;7231;59.370;18.016;2023-09-12T14:04:50;17.15;;;14.45;;
14294;SDS011;7231;59.370;18.016;2023-09-12T14:07:36;17.33;;;13.73;;
14294;SDS011;7231;59.370;18.016;2023-09-12T14:10:05;14.77;;;13.30;;
14294;SDS011;7231;59.370;18.016;2023-09-12T14:12:35;14.35;;;13.05;;
14294;SDS011;7231;59.370;18.016;2023-09-12T14:15:03;15.15;;;13.57;;
14294;SDS011;7231;59.370;18.016;2023-09-12T14:17:34;15.00;;;13.23;;
14294;SDS011;7231;59.370;18.016;2023-09-12T14:20:09;13.57;;;12.27;;
14294;SDS011;7231;59.370;18.016;2023-09-12T14:22:44;13.40;;;12.05;;
14294;SDS011;7231;59.370;18.016;2023-09-12T14:25:12;14.95;;;13.52;;
14294;SDS011;7231;59.370;18.016;2023-09-12T14:27:41;13.38;;;12.02;;
14294;SDS011;7231;59.370;18.016;2023-09-12T14:30:11;14.25;;;12.70;;
14294;SDS011;7231;59.370;18.016;2023-09-12T14:32:40;14.38;;;12.85;;
14294;SDS011;7231;59.370;18.016;2023-09-12T14:35:09;13.70;;;12.25;;
14294;SDS011;7231;59.370;18.016;2023-09-12T14:37:37;12.85;;;11.68;;
14294;SDS011;7231;59.370;18.016;2023-09-12T14:40:07;14.90;;;12.05;;
14294;SDS011;7231;59.370;18.016;2023-09-12T14:42:37;15.48;;;12.38;;
14294;SDS011;7231;59.370;18.016;2023-09-12T14:45:06;13.40;;;12.10;;
14294;SDS011;7231;59.370;18.016;2023-09-12T14:47:35;13.88;;;12.50;;
14294;SDS011;7231;59.370;18.016;2023-09-12T14:50:04;16.73;;;12.68;;